Time;durP1;ratioP1;P1;durP2;ratioP2;P2;SDS_P1;SDS_P2;PMS_P1;PMS_P2;Temp;Humidity;BMP_temperature;BMP_pressure;BME280_temperature;BME280_humidity;BME280_pressure;Samples;Min_cycle;Max_cycle;Signal;HPM_P1;HPM_P2
2021/06/02 00:01:55;;;;;;;8.75;6.50;;;;;;;15.90;68.40;101744.34;5134921;27;20043;-49
2021/06/02 00:04:25;;;;;;;6.57;5.00;;;;;;;15.84;68.38;101735.16;5135449;27;20047;-47
2021/06/02 00:06:57;;;;;;;9.15;6.32;;;;;;;15.81;68.22;101732.97;5135118;27;20511;-47
2021/06/02 00:09:25;;;;;;;7.78;5.85;;;;;;;15.76;68.28;101735.06;5126598;27;20047;-47
2021/06/02 00:11:56;;;;;;;7.97;6.20;;;;;;;15.76;68.30;101743.50;5133214;27;20047;-48
2021/06/02 00:14:25;;;;;;;8.25;6.30;;;;;;;15.72;68.24;101743.31;5135236;27;20091;-49
2021/06/02 00:16:54;;;;;;;8.65;6.10;;;;;;;15.70;68.19;101728.72;5134415;27;20134;-47
2021/06/02 00:19:22;;;;;;;8.13;5.40;;;;;;;15.69;68.15;101735.47;5134988;27;20066;-47
2021/06/02 00:21:50;;;;;;;8.70;5.85;;;;;;;15.68;68.40;101730.16;5135033;27;20051;-48
2021/06/02 00:24:18;;;;;;;8.95;6.13;;;;;;;15.67;68.22;101734.13;5134043;27;20096;-47
2021/06/02 00:26:46;;;;;;;10.00;7.03;;;;;;;15.64;68.49;101729.13;5127795;27;20043;-46
2021/06/02 00:29:15;;;;;;;10.65;5.90;;;;;;;15.61;68.37;101729.72;5134699;27;20536;-46
2021/06/02 00:31:45;;;;;;;9.25;5.88;;;;;;;15.59;68.33;101721.59;5134177;27;20134;-49
2021/06/02 00:34:13;;;;;;;7.93;5.85;;;;;;;15.60;68.38;101725.25;5134830;27;20139;-46
2021/06/02 00:36:42;;;;;;;9.77;6.38;;;;;;;15.56;68.36;101725.06;5133885;27;20084;-49
2021/06/02 00:39:11;;;;;;;7.88;5.95;;;;;;;15.55;68.25;101722.53;5134303;27;20039;-46
2021/06/02 00:41:43;;;;;;;10.68;6.65;;;;;;;15.51;68.28;101717.53;5133305;27;20067;-48
2021/06/02 00:44:12;;;;;;;7.20;5.35;;;;;;;15.50;68.05;101723.47;5134078;27;20096;-47
2021/06/02 00:46:42;;;;;;;7.75;5.05;;;;;;;15.49;68.27;101717.00;5134166;27;20047;-48
2021/06/02 00:49:11;;;;;;;7.45;5.97;;;;;;;15.49;68.00;101714.19;5134372;27;20122;-47
2021/06/02 00:51:39;;;;;;;9.02;6.50;;;;;;;15.48;68.05;101704.06;5123016;27;20453;-47
2021/06/02 00:54:08;;;;;;;7.25;4.80;;;;;;;15.47;68.08;101718.44;5134537;27;20047;-48
2021/06/02 00:56:38;;;;;;;10.52;6.57;;;;;;;15.47;67.99;101719.28;5134004;27;20050;-47
2021/06/02 00:59:08;;;;;;;7.57;4.90;;;;;;;15.45;68.05;101724.38;5133655;27;20580;-46
2021/06/02 01:01:36;;;;;;;8.07;5.70;;;;;;;15.42;67.99;101727.81;5133748;27;20525;-49
2021/06/02 01:04:06;;;;;;;9.13;6.32;;;;;;;15.39;67.99;101725.63;5130631;27;20039;-46
2021/06/02 01:06:34;;;;;;;9.20;5.88;;;;;;;15.37;68.21;101722.31;5133512;27;20120;-49
2021/06/02 01:09:05;;;;;;;8.57;5.95;;;;;;;15.33;68.36;101718.44;5134024;27;20057;-47
2021/06/02 01:11:33;;;;;;;9.23;6.22;;;;;;;15.30;68.65;101719.06;5134246;27;20069;-47
2021/06/02 01:14:02;;;;;;;8.38;5.80;;;;;;;15.29;69.21;101717.38;5133192;27;20051;-47
2021/06/02 01:16:32;;;;;;;9.73;6.80;;;;;;;15.29;69.40;101725.00;5133755;27;20055;-49
2021/06/02 01:19:00;;;;;;;9.30;5.78;;;;;;;15.30;69.58;101723.84;5133402;27;20047;-48
2021/06/02 01:21:31;;;;;;;10.38;6.28;;;;;;;15.29;69.94;101713.75;5134023;27;20074;-49
2021/06/02 01:24:01;;;;;;;8.55;5.50;;;;;;;15.27;69.95;101710.41;5133978;27;20043;-49
2021/06/02 01:26:30;;;;;;;9.27;6.55;;;;;;;15.29;69.93;101710.94;5133126;27;20096;-49
2021/06/02 01:28:58;;;;;;;9.88;6.10;;;;;;;15.28;69.94;101701.66;5133638;27;20047;-48
2021/06/02 01:32:03;;;;;;;10.00;6.32;;;;;;;15.29;69.71;101706.13;5133887;27;20051;-47
2021/06/02 01:34:54;;;;;;;9.32;6.00;;;;;;;15.25;69.88;101705.09;5088648;27;20079;-48
2021/06/02 01:37:47;;;;;;;8.60;6.93;;;;;;;15.25;69.65;101709.88;5133612;27;20066;-48
2021/06/02 01:40:42;;;;;;;8.68;6.28;;;;;;;15.26;69.46;101697.47;5129449;27;20104;-50
2021/06/02 01:43:27;;;;;;;8.60;6.50;;;;;;;15.25;69.62;101702.28;5133236;27;20050;-48
2021/06/02 01:46:18;;;;;;;8.85;6.65;;;;;;;15.25;69.56;101705.09;5122625;27;20078;-48
2021/06/02 01:48:57;;;;;;;9.57;6.47;;;;;;;15.22;69.56;101697.28;5117976;27;20043;-48
2021/06/02 01:52:06;;;;;;;8.45;6.50;;;;;;;15.20;69.49;101701.53;5132686;27;20112;-50
2021/06/02 01:55:09;;;;;;;9.23;6.85;;;;;;;15.14;69.91;101701.66;5132114;27;20051;-50
2021/06/02 01:58:06;;;;;;;11.00;6.93;;;;;;;15.08;70.04;101697.25;5120101;27;20119;-47
2021/06/02 02:00:43;;;;;;;10.35;5.80;;;;;;;15.05;70.25;101699.84;5132975;27;20501;-45
2021/06/02 02:03:47;;;;;;;9.52;5.80;;;;;;;15.05;70.35;101691.41;5132597;27;20071;-48
2021/06/02 02:06:37;;;;;;;9.55;7.43;;;;;;;14.98;70.61;101689.03;5132803;27;20043;-47
2021/06/02 02:09:12;;;;;;;9.55;6.63;;;;;;;14.95;70.94;101688.78;5131991;27;20100;-51
2021/06/02 02:11:41;;;;;;;9.65;6.85;;;;;;;14.94;71.20;101682.34;5132973;27;20055;-49
2021/06/02 02:14:32;;;;;;;10.27;7.05;;;;;;;14.93;71.13;101679.84;5132550;27;20521;-47
2021/06/02 02:17:24;;;;;;;9.35;5.85;;;;;;;14.89;71.38;101679.63;5132624;27;20068;-46
2021/06/02 02:20:01;;;;;;;8.60;5.88;;;;;;;14.84;71.33;101676.88;5129437;27;20070;-47
2021/06/02 02:22:41;;;;;;;8.23;6.57;;;;;;;14.84;71.68;101671.28;5132548;27;20393;-48
2021/06/02 02:25:14;;;;;;;8.02;6.82;;;;;;;14.83;71.36;101670.44;5131778;27;20055;-48
2021/06/02 02:27:49;;;;;;;9.60;6.93;;;;;;;14.82;71.54;101673.56;5132920;27;20135;-50
2021/06/02 02:30:29;;;;;;;9.05;6.53;;;;;;;14.77;71.48;101671.69;5130793;27;20066;-51
2021/06/02 02:33:03;;;;;;;9.60;6.68;;;;;;;14.75;71.57;101685.22;5132523;27;20500;-48
2021/06/02 02:35:44;;;;;;;9.07;6.63;;;;;;;14.75;71.80;101673.97;5132484;27;20497;-49
2021/06/02 02:38:25;;;;;;;10.87;5.80;;;;;;;14.72;71.93;101680.19;5131956;27;20047;-48
2021/06/02 02:41:02;;;;;;;9.90;6.75;;;;;;;14.73;72.18;101679.06;5129723;27;20043;-45
2021/06/02 02:43:44;;;;;;;9.50;5.90;;;;;;;14.74;72.08;101675.09;5131887;27;20471;-47
2021/06/02 02:46:21;;;;;;;8.15;5.93;;;;;;;14.73;71.96;101673.44;5131171;27;20047;-46
2021/06/02 02:48:58;;;;;;;7.43;5.60;;;;;;;14.74;71.68;101665.84;5132139;27;20043;-48
2021/06/02 02:51:28;;;;;;;8.73;6.22;;;;;;;14.77;71.56;101668.03;5131569;27;20069;-48
2021/06/02 02:54:03;;;;;;;7.72;5.82;;;;;;;14.81;71.31;101663.44;5132045;27;20075;-49
2021/06/02 02:56:40;;;;;;;7.80;5.72;;;;;;;14.82;70.83;101656.69;5132085;27;20075;-48
2021/06/02 02:59:18;;;;;;;6.93;4.97;;;;;;;14.85;70.67;101660.88;5131757;27;20039;-46
2021/06/02 03:01:51;;;;;;;6.47;5.10;;;;;;;14.88;70.40;101663.06;5131782;27;20047;-48
2021/06/02 03:04:22;;;;;;;7.20;4.88;;;;;;;14.87;70.33;101659.41;5131446;27;20061;-45
2021/06/02 03:06:53;;;;;;;7.20;5.30;;;;;;;14.88;70.34;101660.25;5131298;27;20120;-47
2021/06/02 03:09:31;;;;;;;7.53;5.38;;;;;;;14.90;70.33;101667.22;5116664;28;20067;-49
2021/06/02 03:12:22;;;;;;;7.93;4.85;;;;;;;14.91;70.19;101668.06;5128962;28;20224;-46
2021/06/02 03:14:56;;;;;;;7.10;4.82;;;;;;;14.88;70.38;101655.47;5131277;28;20437;-49
2021/06/02 03:17:32;;;;;;;8.80;5.57;;;;;;;14.87;70.68;101659.41;5123817;28;20191;-51
2021/06/02 03:20:05;;;;;;;8.82;5.32;;;;;;;14.87;70.58;101659.41;5130736;27;20154;-50
2021/06/02 03:22:43;;;;;;;6.07;4.65;;;;;;;14.86;70.63;101654.09;5131724;28;20579;-47
2021/06/02 03:25:19;;;;;;;7.10;4.55;;;;;;;14.86;71.03;101651.28;5131772;28;20066;-48
2021/06/02 03:27:59;;;;;;;7.43;5.10;;;;;;;14.85;71.11;101653.28;5124681;28;20075;-50
2021/06/02 03:30:33;;;;;;;6.03;4.88;;;;;;;14.84;71.30;101651.59;5131757;28;20071;-50
2021/06/02 03:33:16;;;;;;;6.15;4.88;;;;;;;14.82;71.07;101651.06;5124535;28;20055;-46
2021/06/02 03:35:51;;;;;;;6.60;4.45;;;;;;;14.80;71.13;101650.53;5131636;27;20470;-45
2021/06/02 03:38:31;;;;;;;7.90;4.55;;;;;;;14.82;71.21;101654.72;5131999;28;20495;-47
2021/06/02 03:41:06;;;;;;;10.05;5.50;;;;;;;14.81;71.14;101661.47;5131148;27;20484;-47
2021/06/02 03:43:36;;;;;;;6.40;4.07;;;;;;;14.82;71.39;101663.16;5131759;27;20502;-48
2021/06/02 03:46:16;;;;;;;6.75;4.07;;;;;;;14.83;71.56;101663.97;5131531;27;20070;-46
2021/06/02 03:48:54;;;;;;;6.55;4.05;;;;;;;14.82;71.88;101663.16;5131410;28;20074;-47
2021/06/02 03:51:33;;;;;;;5.70;4.20;;;;;;;14.82;72.20;101667.94;5118470;28;20042;-48
2021/06/02 03:54:27;;;;;;;6.40;4.28;;;;;;;14.81;72.09;101671.88;5130975;28;20085;-47
2021/06/02 03:57:16;;;;;;;6.45;3.75;;;;;;;14.77;72.72;101671.69;5131019;28;20040;-47
2021/06/02 03:59:45;;;;;;;5.82;4.32;;;;;;;14.76;73.04;101666.38;5130415;27;20063;-47
2021/06/02 04:02:20;;;;;;;6.95;4.68;;;;;;;14.77;73.29;101659.63;5130882;27;20040;-47
2021/06/02 04:05:04;;;;;;;5.85;4.22;;;;;;;14.76;73.44;101667.22;5131406;28;20051;-48
2021/06/02 04:07:41;;;;;;;8.38;4.22;;;;;;;14.73;73.67;101665.00;5131175;27;20082;-49
2021/06/02 04:10:13;;;;;;;7.15;4.30;;;;;;;14.73;73.96;101667.81;5130753;28;20067;-47
2021/06/02 04:12:49;;;;;;;5.55;3.97;;;;;;;14.72;74.03;101665.31;5131256;27;20071;-48
2021/06/02 04:15:22;;;;;;;7.18;4.15;;;;;;;14.72;74.08;101666.16;5133141;27;20588;-48
2021/06/02 04:17:51;;;;;;;5.82;3.97;;;;;;;14.74;73.86;101663.88;5135332;27;20055;-49
2021/06/02 04:20:20;;;;;;;5.28;3.55;;;;;;;14.75;73.64;101665.53;5135019;27;20545;-47
2021/06/02 04:22:49;;;;;;;5.30;3.50;;;;;;;14.76;73.49;101658.78;5134519;27;20126;-48
2021/06/02 04:25:18;;;;;;;4.45;3.55;;;;;;;14.78;73.29;101648.06;5134746;27;20140;-47
2021/06/02 04:27:47;;;;;;;5.70;3.67;;;;;;;14.78;73.18;101639.63;5134904;27;20520;-46
2021/06/02 04:30:17;;;;;;;7.55;4.20;;;;;;;14.79;73.16;101646.06;5117512;27;20546;-49
2021/06/02 04:32:46;;;;;;;5.97;3.30;;;;;;;14.80;72.92;101639.31;5121556;27;20449;-49
2021/06/02 04:35:16;;;;;;;4.40;3.22;;;;;;;14.81;73.06;101641.81;5134898;27;20078;-47
2021/06/02 04:37:46;;;;;;;5.30;3.50;;;;;;;14.81;72.95;101650.25;5113979;27;20040;-50
2021/06/02 04:40:14;;;;;;;4.65;2.88;;;;;;;14.82;72.54;101645.44;5127625;27;20035;-47
2021/06/02 04:42:41;;;;;;;4.22;3.10;;;;;;;14.85;72.56;101644.00;5133999;27;20088;-48
2021/06/02 04:45:13;;;;;;;4.80;3.05;;;;;;;14.86;72.38;101642.88;5134891;27;20098;-47
2021/06/02 04:47:41;;;;;;;;;;;;;;;14.78;72.36;101639.63;5134880;27;20133;-46
2021/06/02 04:50:20;;;;;;;5.38;3.45;;;;;;;14.82;72.59;101639.84;5133796;27;19919;-46
2021/06/02 04:53:24;;;;;;;5.43;3.22;;;;;;;14.89;72.51;101642.25;5134509;27;20055;-45
2021/06/02 04:56:11;;;;;;;4.97;3.38;;;;;;;14.91;72.52;101634.34;5071238;28;20148;-49
2021/06/02 04:59:08;;;;;;;5.50;3.13;;;;;;;14.95;72.43;101639.03;5120884;27;20107;-48
2021/06/02 05:02:13;;;;;;;4.85;3.45;;;;;;;14.99;72.40;101650.47;5134450;27;20051;-47
2021/06/02 05:05:03;;;;;;;5.05;3.17;;;;;;;14.99;72.24;101650.47;5133303;27;20075;-47
2021/06/02 05:08:32;;;;;;;5.95;3.33;;;;;;;15.03;72.02;101652.38;5133614;27;20142;-48
2021/06/02 05:11:36;;;;;;;5.95;3.80;;;;;;;15.05;72.20;101654.88;5133535;27;20047;-47
2021/06/02 05:14:46;;;;;;;5.97;3.28;;;;;;;15.09;72.25;101645.50;5133968;27;20743;-47
2021/06/02 05:17:38;;;;;;;6.72;3.75;;;;;;;15.13;72.31;101643.75;5121000;27;20070;-47
2021/06/02 05:24:20;;;;;;;6.07;3.47;;;;;;;15.24;72.28;101655.63;5075170;28;20044;-47
2021/06/02 05:27:15;;;;;;;4.50;3.40;;;;;;;15.27;72.30;101645.72;5125717;27;20100;-50
2021/06/02 05:30:18;;;;;;;5.57;3.85;;;;;;;15.35;72.21;101650.63;5120815;27;20112;-48
2021/06/02 05:33:27;;;;;;;7.85;4.38;;;;;;;15.41;71.96;101641.75;5106724;27;20096;-47
2021/06/02 05:36:23;;;;;;;5.85;4.25;;;;;;;15.49;71.94;101651.47;5133354;27;20101;-47
2021/06/02 05:39:06;;;;;;;6.60;4.45;;;;;;;15.60;71.77;101654.91;5123667;27;20153;-50
2021/06/02 05:41:56;;;;;;;7.88;5.05;;;;;;;15.73;71.22;101659.72;5132928;27;20074;-48
2021/06/02 05:45:01;;;;;;;6.15;4.10;;;;;;;15.85;71.08;101663.66;5133314;27;20047;-50
2021/06/02 05:48:17;;;;;;;5.78;3.83;;;;;;;16.04;70.68;101660.69;5067673;27;20048;-48
2021/06/02 05:51:26;;;;;;;5.22;4.30;;;;;;;16.27;70.17;101664.38;5122655;27;20043;-47
2021/06/02 05:54:34;;;;;;;5.75;4.50;;;;;;;16.47;68.73;101657.41;5130970;27;20082;-51
2021/06/02 05:57:57;;;;;;;5.68;4.07;;;;;;;16.67;68.39;101656.94;5132507;27;20051;-50
2021/06/02 06:01:00;;;;;;;7.90;3.85;;;;;;;16.82;67.97;101650.91;5112665;27;20088;-49
2021/06/02 06:04:06;;;;;;;5.90;4.60;;;;;;;17.03;67.57;101647.53;5129766;27;20086;-48
2021/06/02 06:06:42;;;;;;;4.95;3.83;;;;;;;17.28;67.70;101644.00;5132880;27;20156;-48
2021/06/02 06:09:54;;;;;;;7.40;4.82;;;;;;;17.48;66.63;101654.72;5132465;27;20074;-51
2021/06/02 06:12:58;;;;;;;6.37;4.70;;;;;;;17.58;66.42;101645.94;5132466;27;20043;-48
2021/06/02 06:15:49;;;;;;;7.63;4.50;;;;;;;17.75;65.90;101650.03;5132487;27;20142;-51
2021/06/02 06:18:41;;;;;;;5.85;4.40;;;;;;;17.92;65.15;101654.88;5131393;27;20047;-48
2021/06/02 06:21:35;;;;;;;7.28;4.50;;;;;;;18.07;65.00;101649.56;5132716;27;20078;-53
2021/06/02 06:24:05;;;;;;;5.70;4.30;;;;;;;18.25;64.65;101664.53;5129090;27;20052;-49
2021/06/02 06:26:38;;;;;;;7.55;4.90;;;;;;;18.41;63.70;101656.38;5132554;27;20081;-47
2021/06/02 06:29:12;;;;;;;5.82;4.03;;;;;;;18.59;63.32;101656.06;5132134;27;20381;-46
2021/06/02 06:31:42;;;;;;;9.45;4.78;;;;;;;18.77;63.03;101656.06;5132536;27;20075;-47
2021/06/02 06:34:14;;;;;;;7.57;4.25;;;;;;;18.90;62.59;101661.53;5132536;27;20039;-47
2021/06/02 06:36:44;;;;;;;6.60;4.07;;;;;;;19.00;62.53;101653.81;5131277;27;20127;-48
2021/06/02 06:39:23;;;;;;;5.85;4.93;;;;;;;19.14;62.18;101654.47;5125426;27;20037;-47
2021/06/02 06:41:52;;;;;;;7.07;4.50;;;;;;;19.22;62.30;101654.44;5132280;27;20077;-47
2021/06/02 06:44:22;;;;;;;7.32;4.78;;;;;;;19.36;62.11;101651.41;5124514;27;20095;-54
2021/06/02 06:46:54;;;;;;;6.75;5.15;;;;;;;19.52;61.44;101641.19;5132023;27;20615;-48
2021/06/02 06:49:23;;;;;;;6.63;5.18;;;;;;;19.63;60.97;101650.13;5131535;27;20049;-51
2021/06/02 06:51:52;;;;;;;8.30;5.05;;;;;;;19.70;60.40;101635.44;5131865;27;20122;-48
2021/06/02 06:54:22;;;;;;;7.60;4.50;;;;;;;19.78;60.33;101641.06;5132074;27;20099;-48
2021/06/02 06:56:51;;;;;;;8.65;5.50;;;;;;;19.86;59.76;101642.16;5127928;27;20040;-51
2021/06/02 06:59:20;;;;;;;7.45;4.90;;;;;;;19.93;59.49;101645.28;5131890;27;20038;-49
2021/06/02 07:01:48;;;;;;;8.10;5.43;;;;;;;20.00;59.49;101637.03;5132091;27;20086;-50
2021/06/02 07:04:16;;;;;;;9.07;5.65;;;;;;;20.11;59.24;101637.47;5130730;27;20078;-49
2021/06/02 07:06:44;;;;;;;8.23;5.85;;;;;;;20.19;58.66;101640.22;5131523;27;20411;-48
2021/06/02 07:09:13;;;;;;;8.15;5.35;;;;;;;20.25;58.94;101638.03;5131500;28;20047;-50
2021/06/02 07:11:41;;;;;;;6.80;5.03;;;;;;;20.30;58.69;101632.97;5131306;27;20073;-52
2021/06/02 07:14:11;;;;;;;7.43;5.30;;;;;;;20.33;58.77;101639.13;5121297;28;20051;-49
2021/06/02 07:16:41;;;;;;;8.07;5.93;;;;;;;20.45;58.80;101628.72;5131918;27;20085;-48
2021/06/02 07:19:09;;;;;;;9.23;5.03;;;;;;;20.59;58.28;101631.25;5131355;27;20441;-50
2021/06/02 07:21:41;;;;;;;6.88;4.97;;;;;;;20.57;58.29;101633.63;5128466;28;20406;-50
2021/06/02 07:24:10;;;;;;;8.55;5.45;;;;;;;20.60;58.13;101628.06;5131815;27;20099;-54
2021/06/02 07:26:40;;;;;;;6.20;4.57;;;;;;;20.60;58.34;101630.91;5130183;28;20472;-50
2021/06/02 07:29:25;;;;;;;6.38;5.03;;;;;;;20.70;58.25;101629.66;5131399;28;20124;-51
2021/06/02 07:31:54;;;;;;;6.53;4.85;;;;;;;20.73;58.02;101631.78;5131120;28;20050;-53
2021/06/02 07:34:22;;;;;;;7.78;5.00;;;;;;;20.69;57.99;101624.31;5131703;27;20063;-49
2021/06/02 07:36:50;;;;;;;6.15;4.82;;;;;;;20.68;58.37;101623.50;5131660;27;20563;-49
2021/06/02 07:39:18;;;;;;;6.38;4.40;;;;;;;20.84;58.10;101624.47;5131205;28;20429;-49
2021/06/02 07:41:45;;;;;;;7.78;5.60;;;;;;;20.85;56.97;101620.47;5131346;27;20046;-53
2021/06/02 07:44:12;;;;;;;7.43;5.43;;;;;;;20.77;57.70;101618.56;5125968;28;20126;-53
2021/06/02 07:46:40;;;;;;;8.25;5.95;;;;;;;20.80;57.85;101620.69;5130921;28;20078;-48
2021/06/02 07:49:09;;;;;;;8.93;6.07;;;;;;;20.92;58.34;101615.06;5133001;27;20559;-49
2021/06/02 07:51:36;;;;;;;8.45;6.28;;;;;;;21.07;57.85;101612.72;5135648;27;20079;-48
2021/06/02 07:54:05;;;;;;;9.65;5.90;;;;;;;21.03;57.31;101609.75;5134597;27;20043;-52
2021/06/02 07:56:33;;;;;;;6.55;5.25;;;;;;;21.12;57.63;101610.47;5135416;27;20069;-53
2021/06/02 07:59:01;;;;;;;7.70;5.22;;;;;;;21.20;56.86;101605.88;5135450;27;20051;-52
2021/06/02 08:01:28;;;;;;;7.68;5.05;;;;;;;21.35;57.31;101610.91;5134708;27;20071;-49
2021/06/02 08:03:55;;;;;;;8.05;5.38;;;;;;;21.60;56.63;101621.03;5135482;27;20078;-48
2021/06/02 08:06:24;;;;;;;7.45;5.35;;;;;;;21.72;56.02;101620.22;5134562;27;20532;-51
2021/06/02 08:08:51;;;;;;;9.52;5.60;;;;;;;21.76;56.32;101623.19;5134835;27;20078;-54
2021/06/02 08:11:19;;;;;;;7.75;6.68;;;;;;;21.73;55.22;101627.56;5135125;27;20103;-52
2021/06/02 08:13:46;;;;;;;8.95;6.15;;;;;;;21.65;55.46;101623.66;5126206;27;20054;-51
2021/06/02 08:16:13;;;;;;;7.95;5.72;;;;;;;21.60;55.09;101625.91;5134922;27;20091;-52
2021/06/02 08:18:41;;;;;;;7.65;6.20;;;;;;;21.60;55.24;101623.88;5135130;27;20059;-51
2021/06/02 08:21:08;;;;;;;6.05;4.65;;;;;;;21.69;55.40;101631.47;5134114;27;20046;-49
2021/06/02 08:23:37;;;;;;;7.18;5.20;;;;;;;21.76;55.35;101640.25;5135271;27;20112;-50
2021/06/02 08:26:05;;;;;;;8.32;5.35;;;;;;;21.81;55.36;101640.81;5134977;27;20051;-50
2021/06/02 08:28:32;;;;;;;7.35;5.75;;;;;;;21.89;55.30;101644.72;5134459;27;20074;-53
2021/06/02 08:31:00;;;;;;;9.60;6.10;;;;;;;21.94;55.27;101647.31;5134684;27;20047;-53
2021/06/02 08:33:27;;;;;;;7.38;5.95;;;;;;;21.93;55.02;101645.66;5134559;27;20047;-49
2021/06/02 08:35:55;;;;;;;9.02;5.88;;;;;;;21.82;55.45;101645.31;5134066;27;20047;-48
2021/06/02 08:38:22;;;;;;;9.05;6.47;;;;;;;21.84;55.63;101642.94;5134743;27;20350;-49
2021/06/02 08:40:51;;;;;;;9.35;5.93;;;;;;;21.93;55.37;101642.81;5134488;27;20094;-52
2021/06/02 08:43:19;;;;;;;7.80;6.40;;;;;;;21.96;54.93;101636.44;5127025;27;20115;-48
2021/06/02 08:45:47;;;;;;;10.20;6.25;;;;;;;21.91;54.89;101637.50;5134329;27;20031;-49
2021/06/02 08:48:15;;;;;;;8.85;6.80;;;;;;;21.91;54.25;101636.66;5134215;27;20035;-51
2021/06/02 08:50:42;;;;;;;9.32;6.55;;;;;;;21.94;54.33;101633.94;5133966;27;20135;-49
2021/06/02 08:53:14;;;;;;;10.40;6.55;;;;;;;22.09;54.10;101635.22;5130602;27;20039;-52
2021/06/02 08:55:45;;;;;;;9.25;6.38;;;;;;;22.15;54.08;101636.66;5134254;27;20660;-49
2021/06/02 08:58:17;;;;;;;10.10;6.43;;;;;;;22.37;53.70;101635.28;5132666;27;20036;-48
2021/06/02 09:00:44;;;;;;;10.75;6.78;;;;;;;22.58;52.74;101637.94;5134030;27;20130;-49
2021/06/02 09:03:12;;;;;;;8.73;7.50;;;;;;;22.75;52.88;101633.94;5118332;27;20138;-49
2021/06/02 09:05:40;;;;;;;8.10;6.07;;;;;;;22.96;52.57;101640.25;5134056;27;20116;-53
2021/06/02 09:08:12;;;;;;;7.43;6.35;;;;;;;23.03;52.37;101649.81;5134094;27;20515;-49
2021/06/02 09:10:40;;;;;;;8.38;6.43;;;;;;;23.20;51.62;101644.94;5133763;27;20508;-52
2021/06/02 09:13:16;;;;;;;8.30;6.13;;;;;;;23.24;50.20;101652.41;5133786;27;20039;-51
2021/06/02 09:15:46;;;;;;;9.38;6.68;;;;;;;23.14;51.01;101643.59;5134218;27;20051;-49
2021/06/02 09:18:15;;;;;;;8.30;6.10;;;;;;;23.29;51.44;101648.47;5133269;27;20055;-50
2021/06/02 09:20:45;;;;;;;7.43;6.03;;;;;;;23.49;50.92;101641.66;5133968;27;20134;-50
2021/06/02 09:23:31;;;;;;;7.10;6.03;;;;;;;23.37;49.02;101644.63;5133761;27;20088;-48
2021/06/02 09:26:17;;;;;;;8.27;6.15;;;;;;;23.24;50.30;101645.88;5131529;27;20575;-49
2021/06/02 09:29:09;;;;;;;10.63;7.53;;;;;;;23.10;50.16;101639.81;5118295;27;20047;-53
2021/06/02 09:31:37;;;;;;;8.20;6.03;;;;;;;23.06;50.42;101636.03;5124201;27;20039;-48
2021/06/02 09:34:15;;;;;;;8.85;5.35;;;;;;;23.03;49.94;101634.75;5133190;27;20046;-53
2021/06/02 09:36:44;;;;;;;8.98;6.10;;;;;;;23.17;50.39;101625.78;5123866;27;20104;-48
2021/06/02 09:39:13;;;;;;;5.93;5.32;;;;;;;23.33;49.95;101621.75;5132827;27;20054;-53
2021/06/02 09:41:42;;;;;;;8.32;6.03;;;;;;;23.58;49.10;101625.22;5133743;27;20075;-55
2021/06/02 09:44:16;;;;;;;7.38;5.95;;;;;;;23.64;48.27;101631.47;5133421;27;20043;-52
2021/06/02 09:47:00;;;;;;;9.02;6.43;;;;;;;23.83;48.59;101631.53;5132764;27;20050;-53
2021/06/02 09:49:31;;;;;;;7.53;5.15;;;;;;;24.07;48.04;101630.47;5133229;27;20062;-53
2021/06/02 09:51:59;;;;;;;8.45;5.57;;;;;;;24.38;48.37;101633.22;5133156;27;20051;-50
2021/06/02 09:54:26;;;;;;;7.60;5.78;;;;;;;24.62;46.27;101632.09;5132229;27;20031;-55
2021/06/02 09:56:53;;;;;;;10.55;6.32;;;;;;;24.61;46.38;101621.88;5133285;27;20074;-53
2021/06/02 09:59:22;;;;;;;6.85;5.53;;;;;;;24.77;46.43;101618.13;5132305;27;20039;-51
2021/06/02 10:01:56;;;;;;;7.18;5.43;;;;;;;24.89;46.56;101621.63;5132411;27;20476;-51
2021/06/02 10:04:29;;;;;;;12.60;6.32;;;;;;;24.95;46.13;101614.44;5133057;27;20066;-50
2021/06/02 10:06:57;;;;;;;8.30;6.35;;;;;;;24.93;45.04;101616.00;5132167;27;20066;-56
2021/06/02 10:09:28;;;;;;;7.68;5.40;;;;;;;24.95;45.08;101620.16;5132970;27;20050;-49
2021/06/02 10:11:57;;;;;;;7.65;5.78;;;;;;;25.06;45.63;101615.47;5132361;27;20082;-49
2021/06/02 10:14:26;;;;;;;7.13;5.20;;;;;;;25.11;45.09;101622.06;5132163;27;20506;-49
2021/06/02 10:16:54;;;;;;;7.07;5.03;;;;;;;25.26;44.76;101623.97;5132649;27;20058;-48
2021/06/02 10:19:42;;;;;;;7.43;5.05;;;;;;;25.49;43.70;101627.66;5132709;27;20043;-52
2021/06/02 10:22:23;;;;;;;7.05;5.18;;;;;;;25.61;41.31;101618.84;5131897;27;20052;-51
2021/06/02 10:24:54;;;;;;;7.20;4.22;;;;;;;25.69;43.89;101614.94;5122516;27;20063;-54
2021/06/02 10:27:21;;;;;;;9.35;5.22;;;;;;;25.67;43.06;101617.34;5130017;27;20092;-55
2021/06/02 10:29:51;;;;;;;9.27;5.10;;;;;;;25.73;42.92;101612.97;5132449;27;20050;-52
2021/06/02 10:32:19;;;;;;;5.93;4.30;;;;;;;25.94;41.97;101611.66;5132435;27;20459;-49
2021/06/02 10:34:47;;;;;;;6.32;4.80;;;;;;;26.13;40.65;101614.38;5131722;27;20043;-53
2021/06/02 10:37:16;;;;;;;5.82;4.28;;;;;;;26.27;40.79;101617.41;5132654;27;20107;-53
2021/06/02 10:39:50;;;;;;;6.03;4.40;;;;;;;26.33;39.31;101613.03;5132256;27;20154;-49
2021/06/02 10:42:21;;;;;;;4.72;3.67;;;;;;;26.38;39.07;101614.72;5125052;27;20043;-49
2021/06/02 10:44:53;;;;;;;4.70;3.35;;;;;;;26.28;38.95;101618.25;5132351;27;20070;-48
2021/06/02 10:47:23;;;;;;;5.20;3.42;;;;;;;26.26;38.26;101615.78;5132284;27;20069;-51
2021/06/02 10:49:50;;;;;;;6.00;3.35;;;;;;;26.29;38.33;101617.88;5131813;27;20086;-48
2021/06/02 10:52:38;;;;;;;5.25;2.92;;;;;;;26.38;37.27;101614.72;5132079;27;20047;-48
2021/06/02 10:55:31;;;;;;;6.40;3.15;;;;;;;26.36;38.17;101608.59;5131970;27;20051;-51
2021/06/02 10:58:17;;;;;;;5.18;3.25;;;;;;;26.38;37.24;101606.94;5126818;27;20078;-51
2021/06/02 11:00:47;;;;;;;5.38;2.97;;;;;;;26.37;38.11;101611.06;5112177;27;20124;-48
2021/06/02 11:03:21;;;;;;;4.80;3.00;;;;;;;26.47;37.38;101605.84;5131441;27;20039;-49
2021/06/02 11:05:56;;;;;;;5.70;2.88;;;;;;;26.31;37.04;101606.88;5117857;27;20456;-50
2021/06/02 11:09:04;;;;;;;4.50;2.80;;;;;;;26.19;36.83;101609.94;5131937;27;20081;-51
2021/06/02 11:11:35;;;;;;;4.10;2.75;;;;;;;26.18;37.11;101611.16;5122199;28;20104;-48
2021/06/02 11:14:26;;;;;;;5.03;2.42;;;;;;;26.19;36.39;101604.22;5131595;27;20117;-50
2021/06/02 11:17:18;;;;;;;4.63;2.13;;;;;;;26.35;37.43;101598.34;5131517;27;20051;-48
2021/06/02 11:19:54;;;;;;;4.07;2.40;;;;;;;26.37;37.21;101602.47;5130241;28;20652;-53
2021/06/02 11:22:24;;;;;;;5.10;2.63;;;;;;;26.41;36.47;101600.47;5131838;27;20104;-50
2021/06/02 11:24:57;;;;;;;3.78;2.63;;;;;;;26.51;36.17;101603.84;5135586;27;20059;-50
2021/06/02 11:27:43;;;;;;;5.10;2.65;;;;;;;26.53;35.23;101607.16;5126055;27;20454;-51
2021/06/02 11:30:26;;;;;;;6.30;3.15;;;;;;;26.50;33.91;101602.22;5135019;27;20043;-50
2021/06/02 11:33:11;;;;;;;5.70;2.95;;;;;;;26.45;34.63;101608.28;5135153;27;20038;-55
2021/06/02 11:36:06;;;;;;;3.72;2.67;;;;;;;26.45;35.20;101605.41;5126218;27;20082;-47
2021/06/02 11:38:34;;;;;;;5.18;2.92;;;;;;;26.32;34.25;101601.97;5134071;27;20058;-49
2021/06/02 11:41:01;;;;;;;5.18;2.92;;;;;;;26.11;34.26;101602.50;5122541;27;20412;-49
2021/06/02 11:43:30;;;;;;;6.75;3.00;;;;;;;26.01;34.51;101609.69;5133948;27;20047;-47
2021/06/02 11:46:00;;;;;;;6.57;3.03;;;;;;;26.07;35.83;101613.06;5135405;27;20463;-52
2021/06/02 11:48:36;;;;;;;4.60;2.40;;;;;;;26.12;34.60;101607.00;5135694;27;20074;-51
2021/06/02 11:51:09;;;;;;;5.22;2.65;;;;;;;26.12;33.95;101604.13;5124784;27;20073;-47
2021/06/02 11:53:48;;;;;;;4.32;2.70;;;;;;;25.91;34.66;101598.94;5134637;27;20479;-46
2021/06/02 11:56:18;;;;;;;5.05;3.22;;;;;;;25.83;35.29;101605.75;5136048;27;20051;-48
2021/06/02 11:58:50;;;;;;;6.47;3.53;;;;;;;25.81;35.09;101607.34;5134980;27;20071;-50
2021/06/02 12:01:20;;;;;;;;;;;;;;;25.67;35.22;101611.63;5136128;27;20103;-48
2021/06/02 12:03:57;;;;;;;3.33;2.15;;;;;;;25.80;36.08;101611.41;5128974;27;19927;-46
2021/06/02 12:06:32;;;;;;;6.10;3.10;;;;;;;25.90;35.88;101614.44;5125234;27;20055;-45
2021/06/02 12:09:01;;;;;;;5.85;3.22;;;;;;;26.05;36.13;101615.47;5123637;27;20035;-50
2021/06/02 12:11:29;;;;;;;6.60;3.53;;;;;;;26.09;35.44;101610.63;5127845;27;20130;-48